Genco Loire — V7GN8 — position and weather

sailwx.info

Track history (hours):
 
Tides and Currents Weather Stations Pressure Air Temp Water Temp Dewpoint Dewpoint Depression Visibility Wind Speed Wind Dir Waves Ship Positions

Genco Loire

Last reported at 2014-Aug-01 09:31 UTC. Time now 2014-Aug-01 09:58 UTC.
Position N 40°56' E 028°59'.

Length 190 m; draft 6.8 m.

MMSI: 538002760.

Date/timePositionNaut miles runAvg speedWind from/ knotsBaromVisibWave heightAir tempDewpointWater temp
2014-Aug-01 09:31N 40°56' E 028°59'1111.1
2014-Aug-01 08:29N 40°47' E 028°50'1 1.0
2014-Aug-01 07:33N 40°46' E 028°50'2 1.6
2014-Aug-01 06:33N 40°47' E 028°52'1 1.1
2014-Aug-01 05:21N 40°48' E 028°53'1 1.0
2014-Aug-01 04:30N 40°48' E 028°54'1 0.8
2014-Aug-01 03:08N 40°49' E 028°55'0 0.6
2014-Aug-01 02:18N 40°50' E 028°55'13411.1
2014-Jul-31 14:09N 40°01' E 026°10'710.1
2014-Jul-31 13:29N 39°59' E 026°02'1010.7
2014-Jul-31 12:32N 39°52' E 025°53'1111.4
2014-Jul-31 11:33N 39°41' E 025°50'3213.8
2014-Jul-31 09:15N 39°09' E 025°50'  
2014-Jul-27 23:06N 39°50' E 025°49'914.3
2014-Jul-27 22:29N 39°57' E 025°55'3812.0
2014-Jul-27 19:19N 40°19' E 026°36'311 7.8
2014-Jul-26 03:29N 44°38' E 030°28'1713.5
2014-Jul-26 02:12N 44°55' E 030°35'813.3
2014-Jul-26 01:33N 45°03' E 030°38'9511.4
2014-Jul-25 17:11N 46°35' E 031°12'810.9
2014-Jul-25 16:26N 46°34' E 031°24'8 8.7
2014-Jul-25 15:34N 46°35' E 031°35'9 9.0
2014-Jul-25 14:33N 46°36' E 031°48'8 8.4
2014-Jul-25 13:34N 46°42' E 031°56'8 8.1
2014-Jul-25 12:33N 46°50' E 031°56'8 7.6
2014-Jul-25 11:33N 46°57' E 032°01'0 0.1
2014-Jul-25 10:33N 46°57' E 032°01'0 0.0
2014-Jul-25 09:33N 46°57' E 032°01'0 0.0
2014-Jul-25 08:33N 46°57' E 032°01'0 0.0
2014-Jul-25 07:33N 46°57' E 032°01'0 0.0
2014-Jul-25 06:33N 46°57' E 032°01'0 0.0
2014-Jul-25 05:33N 46°57' E 032°01'0 0.0
2014-Jul-25 04:33N 46°57' E 032°01'0 0.0
2014-Jul-25 03:33N 46°57' E 032°01'0 0.0
2014-Jul-25 02:33N 46°57' E 032°01'0 0.0
2014-Jul-25 01:33N 46°57' E 032°01'0 0.0
2014-Jul-25 00:33N 46°57' E 032°01'0 0.0
2014-Jul-24 23:33N 46°57' E 032°01'0 0.0
2014-Jul-24 22:33N 46°57' E 032°01'0 0.0
2014-Jul-24 21:33N 46°57' E 032°01'0 0.0
2014-Jul-24 20:30N 46°57' E 032°01'0 0.0
2014-Jul-24 19:33N 46°57' E 032°01'0 0.0
2014-Jul-24 18:33N 46°57' E 032°01'0 0.0
2014-Jul-24 17:33N 46°57' E 032°01'0 0.0
2014-Jul-24 16:33N 46°57' E 032°01'0 0.0
2014-Jul-24 15:33N 46°57' E 032°01'0 0.0
2014-Jul-24 14:33N 46°57' E 032°01'0 0.0
2014-Jul-24 13:33N 46°57' E 032°01'0 0.0
2014-Jul-24 12:33N 46°57' E 032°01'0 0.0
2014-Jul-24 11:33N 46°57' E 032°01'0 0.0
2014-Jul-24 10:33N 46°57' E 032°01'0 0.0
2014-Jul-24 09:33N 46°57' E 032°01'0 0.0
2014-Jul-24 08:33N 46°57' E 032°01'0 0.0
2014-Jul-24 07:33N 46°57' E 032°01'0 0.0
2014-Jul-24 06:33N 46°57' E 032°01'0 0.0
2014-Jul-24 05:33N 46°57' E 032°01'0 0.0
2014-Jul-24 04:33N 46°57' E 032°01'0 0.0
2014-Jul-24 03:33N 46°57' E 032°01'0 0.0
2014-Jul-24 02:33N 46°57' E 032°01'0 0.0
2014-Jul-24 01:33N 46°57' E 032°01'0 0.0
2014-Jul-24 00:33N 46°57' E 032°01'0 0.0
2014-Jul-23 23:33N 46°57' E 032°01'0 0.0
2014-Jul-23 22:33N 46°57' E 032°01'0 0.0
2014-Jul-23 21:33N 46°57' E 032°01'0 0.0
2014-Jul-23 20:33N 46°57' E 032°01'0 0.0
2014-Jul-23 19:33N 46°57' E 032°01'0 0.0
2014-Jul-23 18:33N 46°57' E 032°01'0 0.0
2014-Jul-23 17:33N 46°57' E 032°01'0 0.0
2014-Jul-23 16:33N 46°57' E 032°01'0 0.0
2014-Jul-23 15:33N 46°57' E 032°01'0 0.0
2014-Jul-23 14:33N 46°57' E 032°01'0 0.0
2014-Jul-23 13:33N 46°57' E 032°01'0 0.0
2014-Jul-23 12:33N 46°57' E 032°01'0 0.0
2014-Jul-23 11:33N 46°57' E 032°01'0 0.0
2014-Jul-23 10:33N 46°57' E 032°01'0 0.0
2014-Jul-23 09:33N 46°57' E 032°01'0 0.0
2014-Jul-23 08:33N 46°57' E 032°01'0 0.0
2014-Jul-23 07:33N 46°57' E 032°01'0 0.0
2014-Jul-23 06:33N 46°57' E 032°01'0 0.0
2014-Jul-23 05:33N 46°57' E 032°01'0 0.0
2014-Jul-23 04:33N 46°57' E 032°01'0 0.0
2014-Jul-23 03:33N 46°57' E 032°01'0 0.0
2014-Jul-23 02:33N 46°57' E 032°01'0 0.0
2014-Jul-23 01:33N 46°57' E 032°01'0 0.0
2014-Jul-23 00:33N 46°57' E 032°01'0 0.0
2014-Jul-22 23:33N 46°57' E 032°01'0 0.0
2014-Jul-22 22:33N 46°57' E 032°01'0 0.0
2014-Jul-22 21:33N 46°57' E 032°01'0 0.0
2014-Jul-22 20:33N 46°57' E 032°01'0 0.0
2014-Jul-22 19:33N 46°57' E 032°01'0 0.0
2014-Jul-22 18:33N 46°57' E 032°01'0 0.0
2014-Jul-22 17:33N 46°57' E 032°01'0 0.0
2014-Jul-22 16:33N 46°57' E 032°01'0 0.0
2014-Jul-22 15:33N 46°57' E 032°01'0 0.0
2014-Jul-22 14:33N 46°57' E 032°01'0 0.0
2014-Jul-22 13:33N 46°57' E 032°01'0 0.0
2014-Jul-22 12:33N 46°57' E 032°01'0 0.0
2014-Jul-22 11:33N 46°57' E 032°01'0 0.0
2014-Jul-22 10:33N 46°57' E 032°01'0 0.0
2014-Jul-22 09:33N 46°57' E 032°01'  
Track history (hours):
 
Tides and Currents Weather Stations Pressure Air Temp Water Temp Dewpoint Dewpoint Depression Visibility Wind Speed Wind Dir Waves Ship Positions

Genco Loire

Last reported at 2014-Aug-01 09:31 UTC. Time now 2014-Aug-01 09:58 UTC.
Position N 40°56' E 028°59'.

Length 190 m; draft 6.8 m.

MMSI: 538002760.

Date/timePositionNaut miles runAvg speedWind from/ knotsBaromVisibWave heightAir tempDewpointWater temp
2014-Aug-01 09:31N 40°56' E 028°59'1111.1
2014-Aug-01 08:29N 40°47' E 028°50'1 1.0
2014-Aug-01 07:33N 40°46' E 028°50'2 1.6
2014-Aug-01 06:33N 40°47' E 028°52'1 1.1
2014-Aug-01 05:21N 40°48' E 028°53'1 1.0
2014-Aug-01 04:30N 40°48' E 028°54'1 0.8
2014-Aug-01 03:08N 40°49' E 028°55'0 0.6
2014-Aug-01 02:18N 40°50' E 028°55'13411.1
2014-Jul-31 14:09N 40°01' E 026°10'710.1
2014-Jul-31 13:29N 39°59' E 026°02'1010.7
2014-Jul-31 12:32N 39°52' E 025°53'1111.4
2014-Jul-31 11:33N 39°41' E 025°50'3213.8
2014-Jul-31 09:15N 39°09' E 025°50'  
2014-Jul-27 23:06N 39°50' E 025°49'914.3
2014-Jul-27 22:29N 39°57' E 025°55'3812.0
2014-Jul-27 19:19N 40°19' E 026°36'311 7.8
2014-Jul-26 03:29N 44°38' E 030°28'1713.5
2014-Jul-26 02:12N 44°55' E 030°35'813.3
2014-Jul-26 01:33N 45°03' E 030°38'9511.4
2014-Jul-25 17:11N 46°35' E 031°12'810.9
2014-Jul-25 16:26N 46°34' E 031°24'8 8.7
2014-Jul-25 15:34N 46°35' E 031°35'9 9.0
2014-Jul-25 14:33N 46°36' E 031°48'8 8.4
2014-Jul-25 13:34N 46°42' E 031°56'8 8.1
2014-Jul-25 12:33N 46°50' E 031°56'8 7.6
2014-Jul-25 11:33N 46°57' E 032°01'0 0.1
2014-Jul-25 10:33N 46°57' E 032°01'0 0.0
2014-Jul-25 09:33N 46°57' E 032°01'0 0.0
2014-Jul-25 08:33N 46°57' E 032°01'0 0.0
2014-Jul-25 07:33N 46°57' E 032°01'0 0.0
2014-Jul-25 06:33N 46°57' E 032°01'0 0.0
2014-Jul-25 05:33N 46°57' E 032°01'0 0.0
2014-Jul-25 04:33N 46°57' E 032°01'0 0.0
2014-Jul-25 03:33N 46°57' E 032°01'0 0.0
2014-Jul-25 02:33N 46°57' E 032°01'0 0.0
2014-Jul-25 01:33N 46°57' E 032°01'0 0.0
2014-Jul-25 00:33N 46°57' E 032°01'0 0.0
2014-Jul-24 23:33N 46°57' E 032°01'0 0.0
2014-Jul-24 22:33N 46°57' E 032°01'0 0.0
2014-Jul-24 21:33N 46°57' E 032°01'0 0.0
2014-Jul-24 20:30N 46°57' E 032°01'0 0.0
2014-Jul-24 19:33N 46°57' E 032°01'0 0.0
2014-Jul-24 18:33N 46°57' E 032°01'0 0.0
2014-Jul-24 17:33N 46°57' E 032°01'0 0.0
2014-Jul-24 16:33N 46°57' E 032°01'0 0.0
2014-Jul-24 15:33N 46°57' E 032°01'0 0.0
2014-Jul-24 14:33N 46°57' E 032°01'0 0.0
2014-Jul-24 13:33N 46°57' E 032°01'0 0.0
2014-Jul-24 12:33N 46°57' E 032°01'0 0.0
2014-Jul-24 11:33N 46°57' E 032°01'0 0.0
2014-Jul-24 10:33N 46°57' E 032°01'0 0.0
2014-Jul-24 09:33N 46°57' E 032°01'0 0.0
2014-Jul-24 08:33N 46°57' E 032°01'0 0.0
2014-Jul-24 07:33N 46°57' E 032°01'0 0.0
2014-Jul-24 06:33N 46°57' E 032°01'0 0.0
2014-Jul-24 05:33N 46°57' E 032°01'0 0.0
2014-Jul-24 04:33N 46°57' E 032°01'0 0.0
2014-Jul-24 03:33N 46°57' E 032°01'0 0.0
2014-Jul-24 02:33N 46°57' E 032°01'0 0.0
2014-Jul-24 01:33N 46°57' E 032°01'0 0.0
2014-Jul-24 00:33N 46°57' E 032°01'0 0.0
2014-Jul-23 23:33N 46°57' E 032°01'0 0.0
2014-Jul-23 22:33N 46°57' E 032°01'0 0.0
2014-Jul-23 21:33N 46°57' E 032°01'0 0.0
2014-Jul-23 20:33N 46°57' E 032°01'0 0.0
2014-Jul-23 19:33N 46°57' E 032°01'0 0.0
2014-Jul-23 18:33N 46°57' E 032°01'0 0.0
2014-Jul-23 17:33N 46°57' E 032°01'0 0.0
2014-Jul-23 16:33N 46°57' E 032°01'0 0.0
2014-Jul-23 15:33N 46°57' E 032°01'0 0.0
2014-Jul-23 14:33N 46°57' E 032°01'0 0.0
2014-Jul-23 13:33N 46°57' E 032°01'0 0.0
2014-Jul-23 12:33N 46°57' E 032°01'0 0.0
2014-Jul-23 11:33N 46°57' E 032°01'0 0.0
2014-Jul-23 10:33N 46°57' E 032°01'0 0.0
2014-Jul-23 09:33N 46°57' E 032°01'0 0.0
2014-Jul-23 08:33N 46°57' E 032°01'0 0.0
2014-Jul-23 07:33N 46°57' E 032°01'0 0.0
2014-Jul-23 06:33N 46°57' E 032°01'0 0.0
2014-Jul-23 05:33N 46°57' E 032°01'0 0.0
2014-Jul-23 04:33N 46°57' E 032°01'0 0.0
2014-Jul-23 03:33N 46°57' E 032°01'0 0.0
2014-Jul-23 02:33N 46°57' E 032°01'0 0.0
2014-Jul-23 01:33N 46°57' E 032°01'0 0.0
2014-Jul-23 00:33N 46°57' E 032°01'0 0.0
2014-Jul-22 23:33N 46°57' E 032°01'0 0.0
2014-Jul-22 22:33N 46°57' E 032°01'0 0.0
2014-Jul-22 21:33N 46°57' E 032°01'0 0.0
2014-Jul-22 20:33N 46°57' E 032°01'0 0.0
2014-Jul-22 19:33N 46°57' E 032°01'0 0.0
2014-Jul-22 18:33N 46°57' E 032°01'0 0.0
2014-Jul-22 17:33N 46°57' E 032°01'0 0.0
2014-Jul-22 16:33N 46°57' E 032°01'0 0.0
2014-Jul-22 15:33N 46°57' E 032°01'0 0.0
2014-Jul-22 14:33N 46°57' E 032°01'0 0.0
2014-Jul-22 13:33N 46°57' E 032°01'0 0.0
2014-Jul-22 12:33N 46°57' E 032°01'0 0.0
2014-Jul-22 11:33N 46°57' E 032°01'0 0.0
2014-Jul-22 10:33N 46°57' E 032°01'0 0.0
2014-Jul-22 09:33N 46°57' E 032°01'  

Dump ship's entire track history